createdAt,value
2023-03-02T00:01:40.151Z,6.31
2023-03-02T00:04:12.846Z,6.31
2023-03-02T00:06:40.419Z,6.28
2023-03-02T00:09:08.217Z,6.18
2023-03-02T00:11:38.886Z,6.17
2023-03-02T00:14:06.960Z,6.20
2023-03-02T00:16:35.207Z,6.16
2023-03-02T00:19:02.922Z,6.16
2023-03-02T00:21:31.811Z,6.11
2023-03-02T00:23:59.653Z,6.09
2023-03-02T00:26:27.156Z,6.06
2023-03-02T00:28:54.724Z,6.03
2023-03-02T00:31:22.592Z,6.05
2023-03-02T00:33:51.256Z,5.99
2023-03-02T00:36:20.556Z,5.95
2023-03-02T00:38:48.928Z,6.00
2023-03-02T00:41:16.886Z,5.97
2023-03-02T00:43:44.543Z,5.96
2023-03-02T00:46:14.514Z,5.87
2023-03-02T00:48:42.416Z,5.83
2023-03-02T00:51:11.032Z,5.81
2023-03-02T00:53:39.745Z,5.72
2023-03-02T00:56:08.600Z,5.72
2023-03-02T00:58:37.142Z,5.76
2023-03-02T01:01:10.976Z,5.68
2023-03-02T01:03:39.635Z,5.66
2023-03-02T01:06:15.405Z,5.63
2023-03-02T01:08:43.042Z,5.59
2023-03-02T01:11:19.267Z,5.59
2023-03-02T01:13:47.887Z,5.54
2023-03-02T01:16:16.417Z,5.50
2023-03-02T01:18:43.996Z,5.49
2023-03-02T01:21:14.689Z,5.49
2023-03-02T01:23:42.751Z,5.49
2023-03-02T01:26:10.697Z,5.48
2023-03-02T01:28:38.179Z,5.46
2023-03-02T01:31:06.151Z,5.50
2023-03-02T01:33:33.741Z,5.46
2023-03-02T01:36:01.234Z,5.48
2023-03-02T01:38:29.109Z,5.50
2023-03-02T01:40:56.641Z,5.50
2023-03-02T01:43:24.290Z,5.49
2023-03-02T01:45:57.371Z,5.41
2023-03-02T01:48:58.295Z,5.47
2023-03-02T01:51:28.728Z,5.49
2023-03-02T01:54:07.401Z,5.50
2023-03-02T01:56:39.925Z,5.50
2023-03-02T01:59:12.093Z,5.50
2023-03-02T02:01:43.097Z,5.55
2023-03-02T02:04:11.870Z,5.63
2023-03-02T02:06:46.811Z,5.64
2023-03-02T02:09:18.661Z,5.63
2023-03-02T02:11:46.620Z,5.61
2023-03-02T02:14:14.873Z,5.58
2023-03-02T02:16:42.595Z,5.63
2023-03-02T02:19:36.166Z,5.61
2023-03-02T02:22:04.024Z,5.62
2023-03-02T02:24:44.465Z,5.61
2023-03-02T02:27:13.212Z,5.57
2023-03-02T02:29:48.664Z,5.62
2023-03-02T02:32:20.450Z,5.67
2023-03-02T02:34:58.876Z,5.71
2023-03-02T02:37:32.912Z,5.66
2023-03-02T02:40:07.286Z,5.66
2023-03-02T02:42:40.049Z,5.67
2023-03-02T02:45:17.722Z,5.70
2023-03-02T02:47:45.788Z,5.60
2023-03-02T02:50:26.931Z,5.57
2023-03-02T02:53:05.756Z,5.54
2023-03-02T02:55:35.545Z,5.60
2023-03-02T02:58:15.870Z,5.56
2023-03-02T03:00:44.464Z,5.56
2023-03-02T03:03:29.315Z,5.54
2023-03-02T03:05:59.929Z,5.50
2023-03-02T03:08:45.956Z,5.54
2023-03-02T03:11:19.554Z,5.46
2023-03-02T03:13:47.912Z,5.35
2023-03-02T03:16:17.899Z,5.34
2023-03-02T03:18:48.323Z,5.37
2023-03-02T03:21:18.419Z,5.35
2023-03-02T03:23:46.274Z,5.32
2023-03-02T03:26:13.856Z,5.35
2023-03-02T03:28:41.669Z,5.39
2023-03-02T03:31:09.395Z,5.42
2023-03-02T03:33:36.934Z,5.38
2023-03-02T03:36:05.200Z,5.42
2023-03-02T03:38:32.888Z,5.42
2023-03-02T03:41:00.676Z,5.37
2023-03-02T03:43:28.653Z,5.37
2023-03-02T03:45:57.129Z,5.37
2023-03-02T03:48:24.739Z,5.32
2023-03-02T03:50:53.237Z,5.34
2023-03-02T03:53:20.932Z,5.25
2023-03-02T03:55:48.491Z,5.18
2023-03-02T03:58:16.538Z,5.19
2023-03-02T04:00:45.550Z,5.14
2023-03-02T04:03:15.478Z,5.08
2023-03-02T04:05:43.266Z,5.06
2023-03-02T04:08:11.257Z,5.09
2023-03-02T04:10:39.547Z,5.09
2023-03-02T04:13:07.424Z,5.06
2023-03-02T04:15:35.657Z,5.11
2023-03-02T04:18:04.297Z,5.17
2023-03-02T04:20:32.602Z,5.09
2023-03-02T04:23:00.172Z,5.08
2023-03-02T04:25:29.757Z,5.10
2023-03-02T04:27:58.317Z,5.07
2023-03-02T04:30:27.050Z,4.98
2023-03-02T04:32:57.477Z,4.96
2023-03-02T04:35:25.597Z,4.99
2023-03-02T04:37:54.207Z,4.92
2023-03-02T04:40:22.065Z,4.83
2023-03-02T04:42:49.530Z,4.78
2023-03-02T04:45:17.292Z,4.71
2023-03-02T04:47:45.248Z,4.68
2023-03-02T04:50:14.537Z,4.67
2023-03-02T04:52:42.336Z,4.60
2023-03-02T04:55:18.304Z,4.57
2023-03-02T04:57:45.768Z,4.50
2023-03-02T05:00:15.058Z,4.46
2023-03-02T05:02:42.780Z,4.38
2023-03-02T05:05:19.700Z,4.35
2023-03-02T05:07:47.712Z,4.33
2023-03-02T05:10:16.854Z,4.28
2023-03-02T05:13:02.630Z,4.23
2023-03-02T05:15:39.891Z,4.19
2023-03-02T05:18:09.795Z,4.23
2023-03-02T05:20:38.162Z,4.16
2023-03-02T05:23:08.027Z,4.13
2023-03-02T05:25:36.722Z,4.07
2023-03-02T05:28:05.611Z,4.07
2023-03-02T05:30:37.477Z,4.08
2023-03-02T05:33:05.472Z,4.09
2023-03-02T05:35:33.184Z,4.01
2023-03-02T05:38:00.742Z,4.06
2023-03-02T05:40:28.583Z,4.08
2023-03-02T05:42:56.049Z,3.96
2023-03-02T05:45:30.007Z,3.88
2023-03-02T05:47:57.998Z,3.79
2023-03-02T05:50:25.596Z,3.77
2023-03-02T05:52:53.206Z,3.78
2023-03-02T05:55:21.348Z,3.70
2023-03-02T05:57:49.451Z,3.71
2023-03-02T06:00:18.646Z,3.62
2023-03-02T06:02:46.572Z,3.69
2023-03-02T06:05:17.322Z,3.66
2023-03-02T06:07:45.783Z,3.59
2023-03-02T06:10:16.652Z,3.53
2023-03-02T06:12:44.159Z,3.56
2023-03-02T06:15:11.677Z,3.51
2023-03-02T06:17:39.470Z,3.55
2023-03-02T06:20:11.266Z,3.48
2023-03-02T06:22:41.391Z,3.42
2023-03-02T06:25:11.205Z,3.44
2023-03-02T06:27:40.407Z,3.42
2023-03-02T06:30:10.820Z,3.35
2023-03-02T06:32:38.435Z,3.37
2023-03-02T06:35:08.416Z,3.33
2023-03-02T06:37:36.313Z,3.28
2023-03-02T06:40:11.590Z,3.31
2023-03-02T06:42:41.479Z,3.31
2023-03-02T06:45:10.612Z,3.31
2023-03-02T06:47:38.734Z,3.33
2023-03-02T06:50:09.880Z,3.35
2023-03-02T06:52:37.491Z,3.34
2023-03-02T06:55:05.703Z,3.30
2023-03-02T06:57:36.693Z,3.33
2023-03-02T07:00:18.333Z,3.31
2023-03-02T07:02:46.779Z,3.32
2023-03-02T07:05:14.357Z,3.31
2023-03-02T07:07:42.049Z,3.30
2023-03-02T07:10:12.215Z,3.34
2023-03-02T07:12:41.314Z,3.34
2023-03-02T07:15:12.255Z,3.33
2023-03-02T07:17:42.050Z,3.38
2023-03-02T07:20:11.868Z,3.34
2023-03-02T07:22:40.665Z,3.33
2023-03-02T07:25:09.569Z,3.29
2023-03-02T07:27:38.043Z,3.33
2023-03-02T07:30:07.216Z,3.37
2023-03-02T07:32:34.838Z,3.40
2023-03-02T07:35:02.344Z,3.39
2023-03-02T07:37:30.166Z,3.38
2023-03-02T07:40:00.282Z,3.40
2023-03-02T07:42:28.239Z,3.42
2023-03-02T07:44:56.511Z,3.45
2023-03-02T07:47:24.210Z,3.43
2023-03-02T07:49:51.700Z,3.54
2023-03-02T07:52:19.507Z,3.54
2023-03-02T07:54:46.985Z,3.54
2023-03-02T07:57:16.404Z,3.63
2023-03-02T07:59:44.430Z,3.61
2023-03-02T08:02:14.809Z,3.67
2023-03-02T08:04:43.283Z,3.70
2023-03-02T08:07:10.811Z,3.74
2023-03-02T08:09:39.917Z,3.76
2023-03-02T08:12:07.790Z,3.86
2023-03-02T08:14:35.381Z,3.87
2023-03-02T08:17:04.911Z,3.88
2023-03-02T08:19:33.498Z,3.88
2023-03-02T08:22:02.242Z,3.91
2023-03-02T08:24:30.369Z,3.96
2023-03-02T08:27:04.765Z,3.98
2023-03-02T08:29:32.956Z,4.00
2023-03-02T08:32:00.926Z,3.99
2023-03-02T08:34:28.586Z,4.02
2023-03-02T08:36:56.098Z,4.09
2023-03-02T08:39:23.979Z,4.11
2023-03-02T08:41:54.622Z,4.14
2023-03-02T08:44:22.505Z,4.11
2023-03-02T08:46:51.067Z,4.17
2023-03-02T08:49:19.538Z,4.07
2023-03-02T08:51:49.112Z,4.13
2023-03-02T08:54:16.907Z,4.13
2023-03-02T08:56:44.587Z,4.10
2023-03-02T08:59:13.835Z,4.13
2023-03-02T09:01:42.096Z,4.10
2023-03-02T09:04:11.006Z,4.10
2023-03-02T09:06:41.911Z,4.13
2023-03-02T09:09:11.500Z,4.13
2023-03-02T09:11:39.753Z,4.16
2023-03-02T09:14:07.249Z,4.15
2023-03-02T09:16:35.141Z,4.17
2023-03-02T09:19:02.830Z,4.16
2023-03-02T09:21:30.393Z,4.18
2023-03-02T09:23:58.690Z,4.16
2023-03-02T09:26:27.357Z,4.19
2023-03-02T09:28:55.796Z,4.16
2023-03-02T09:31:23.889Z,4.16
2023-03-02T09:33:51.432Z,4.18
2023-03-02T09:36:24.340Z,4.15
2023-03-02T09:38:52.887Z,4.20
2023-03-02T09:41:20.304Z,4.21
2023-03-02T09:44:00.214Z,4.26
2023-03-02T09:46:37.738Z,4.25
2023-03-02T09:49:42.332Z,4.25
2023-03-02T09:52:30.103Z,4.28
2023-03-02T09:55:12.690Z,4.32
2023-03-02T09:57:41.463Z,4.33
2023-03-02T10:00:19.903Z,4.40
2023-03-02T10:03:11.388Z,4.41
2023-03-02T10:05:46.034Z,4.40
2023-03-02T10:08:26.066Z,4.43
2023-03-02T10:11:05.423Z,4.45
2023-03-02T10:13:44.975Z,4.45
2023-03-02T10:16:21.806Z,4.46
2023-03-02T10:18:52.723Z,4.40
2023-03-02T10:21:25.041Z,4.42
2023-03-02T10:24:08.011Z,4.41
2023-03-02T10:26:53.380Z,4.41
2023-03-02T10:29:36.317Z,4.45
2023-03-02T10:32:09.968Z,4.52
2023-03-02T10:34:38.697Z,4.55
2023-03-02T10:37:13.891Z,4.59
2023-03-02T10:39:41.852Z,4.51
2023-03-02T10:42:37.203Z,4.59
2023-03-02T10:45:17.240Z,4.56
2023-03-02T10:47:44.778Z,4.63
2023-03-02T10:50:22.756Z,4.70
2023-03-02T10:52:59.516Z,4.68
2023-03-02T10:55:29.029Z,4.73
2023-03-02T10:58:06.159Z,4.74
2023-03-02T11:00:35.067Z,4.81
2023-03-02T11:03:06.590Z,4.87
2023-03-02T11:05:39.668Z,4.86
2023-03-02T11:08:16.842Z,4.93
2023-03-02T11:10:59.909Z,4.95
2023-03-02T11:13:39.151Z,5.00
2023-03-02T11:16:18.983Z,5.08
2023-03-02T11:19:12.195Z,5.15
2023-03-02T11:22:04.425Z,5.14
2023-03-02T11:24:48.550Z,5.21
2023-03-02T11:27:25.466Z,5.17
2023-03-02T11:30:27.112Z,5.15
2023-03-02T11:33:00.339Z,5.16
2023-03-02T11:35:37.184Z,5.20
2023-03-02T11:38:23.493Z,5.31
2023-03-02T11:41:12.568Z,5.20
2023-03-02T11:43:40.410Z,5.27
2023-03-02T11:46:22.324Z,5.28
2023-03-02T11:48:57.276Z,5.27
2023-03-02T11:51:29.408Z,5.26
2023-03-02T11:54:13.945Z,5.27
2023-03-02T11:56:42.419Z,5.31
2023-03-02T11:59:23.023Z,5.31
2023-03-02T12:01:53.615Z,5.31
2023-03-02T12:04:39.740Z,5.31
2023-03-02T12:07:18.248Z,5.35
2023-03-02T12:10:06.064Z,5.43
2023-03-02T12:12:48.143Z,5.43
2023-03-02T12:15:51.762Z,5.39
2023-03-02T12:18:22.233Z,5.44
2023-03-02T12:21:10.079Z,5.42
2023-03-02T12:23:58.986Z,5.44
2023-03-02T12:26:36.943Z,5.47
2023-03-02T12:29:23.936Z,5.38
2023-03-02T12:31:54.947Z,5.39
2023-03-02T12:34:42.815Z,5.32
2023-03-02T12:37:24.909Z,5.35
2023-03-02T12:40:43.640Z,5.42
2023-03-02T12:43:25.681Z,5.42
2023-03-02T12:46:21.080Z,5.46
2023-03-02T12:49:00.981Z,5.37
2023-03-02T12:51:51.764Z,5.43
2023-03-02T12:54:22.877Z,5.44
2023-03-02T12:57:01.381Z,5.39
2023-03-02T12:59:29.634Z,5.43
2023-03-02T13:02:13.179Z,5.47
2023-03-02T13:04:41.081Z,5.50
2023-03-02T13:07:22.413Z,5.49
2023-03-02T13:09:56.768Z,5.51
2023-03-02T13:12:28.120Z,5.50
2023-03-02T13:14:58.860Z,5.55
2023-03-02T13:17:31.752Z,5.62
2023-03-02T13:20:01.669Z,5.65
2023-03-02T13:22:29.717Z,5.67
2023-03-02T13:25:08.191Z,5.71
2023-03-02T13:27:36.068Z,5.70
2023-03-02T13:30:30.222Z,5.67
2023-03-02T13:33:03.903Z,5.73
2023-03-02T13:35:33.825Z,5.79
2023-03-02T13:38:18.107Z,5.81
2023-03-02T13:40:48.574Z,5.81
2023-03-02T13:43:22.971Z,5.86
2023-03-02T13:45:56.364Z,5.81
2023-03-02T13:48:24.623Z,5.82
2023-03-02T13:50:58.507Z,5.78
2023-03-02T13:53:30.138Z,5.77
2023-03-02T13:56:00.343Z,5.75
2023-03-02T13:58:29.827Z,5.74
2023-03-02T14:00:57.604Z,5.75
2023-03-02T14:03:28.688Z,5.80
2023-03-02T14:05:57.974Z,5.83
2023-03-02T14:08:25.999Z,5.87
2023-03-02T14:10:57.403Z,5.85
2023-03-02T14:13:28.574Z,5.81
2023-03-02T14:15:56.439Z,5.75
2023-03-02T14:18:39.862Z,5.74
2023-03-02T14:21:19.261Z,5.78
2023-03-02T14:23:47.451Z,5.82
2023-03-02T14:26:43.588Z,8.03
2023-03-02T14:29:25.307Z,9.11
2023-03-02T14:31:55.583Z,8.00
2023-03-02T14:34:23.420Z,7.61
2023-03-02T14:36:54.427Z,7.22
2023-03-02T14:39:47.352Z,7.00
2023-03-02T14:42:17.150Z,6.82
2023-03-02T14:44:46.983Z,6.64
2023-03-02T14:47:16.683Z,6.56
2023-03-02T14:49:44.452Z,6.42
2023-03-02T14:52:23.557Z,6.39
2023-03-02T14:54:54.592Z,6.36
2023-03-02T14:57:25.430Z,6.33
2023-03-02T14:59:53.905Z,6.27
2023-03-02T15:02:26.135Z,6.27
2023-03-02T15:04:57.792Z,6.25
2023-03-02T15:07:27.782Z,6.24
2023-03-02T15:09:56.869Z,6.24
2023-03-02T15:12:24.897Z,6.14
2023-03-02T15:14:52.677Z,6.09
2023-03-02T15:17:20.216Z,6.04
2023-03-02T15:19:48.175Z,6.03
2023-03-02T15:22:16.102Z,5.98
2023-03-02T15:24:43.598Z,6.01
2023-03-02T15:27:11.101Z,5.99
2023-03-02T15:29:38.937Z,5.96
2023-03-02T15:32:07.579Z,5.96
2023-03-02T15:34:35.735Z,5.97
2023-03-02T15:37:03.584Z,5.98
2023-03-02T15:39:31.388Z,5.96
2023-03-02T15:41:58.926Z,5.97
2023-03-02T15:44:26.817Z,5.99
2023-03-02T15:46:55.597Z,5.93
2023-03-02T15:49:27.224Z,5.93
2023-03-02T15:51:57.639Z,5.89
2023-03-02T15:54:26.699Z,5.86
2023-03-02T15:56:54.744Z,5.84
2023-03-02T15:59:25.036Z,5.85
2023-03-02T16:01:53.565Z,5.84
2023-03-02T16:04:21.394Z,5.83
2023-03-02T16:06:48.992Z,5.84
2023-03-02T16:09:16.557Z,5.87
2023-03-02T16:11:44.339Z,5.82
2023-03-02T16:14:15.568Z,5.81
2023-03-02T16:16:46.532Z,5.78
2023-03-02T16:19:18.967Z,5.82
2023-03-02T16:21:48.163Z,5.79
2023-03-02T16:24:17.184Z,5.75
2023-03-02T16:26:45.533Z,5.69
2023-03-02T16:29:13.843Z,5.68
2023-03-02T16:31:42.025Z,5.68
2023-03-02T16:34:11.320Z,5.69
2023-03-02T16:36:40.579Z,5.66
2023-03-02T16:39:09.359Z,5.64
2023-03-02T16:41:38.311Z,5.67
2023-03-02T16:44:06.899Z,5.64
2023-03-02T16:46:37.588Z,5.60
2023-03-02T16:49:06.065Z,5.57
2023-03-02T16:51:33.697Z,5.60
2023-03-02T16:54:02.310Z,5.61
2023-03-02T16:56:30.248Z,5.62
2023-03-02T16:58:59.976Z,5.61
2023-03-02T17:01:29.308Z,5.60
2023-03-02T17:03:57.436Z,5.55
2023-03-02T17:06:25.081Z,5.54
2023-03-02T17:08:52.946Z,5.48
2023-03-02T17:11:21.197Z,5.44
2023-03-02T17:13:48.714Z,5.43
2023-03-02T17:16:16.883Z,5.43
2023-03-02T17:18:47.117Z,5.39
2023-03-02T17:21:16.665Z,5.40
2023-03-02T17:23:48.126Z,5.40
2023-03-02T17:26:17.333Z,5.45
2023-03-02T17:28:45.217Z,5.46
2023-03-02T17:31:12.977Z,5.46
2023-03-02T17:33:40.601Z,5.46
2023-03-02T17:36:12.200Z,5.50
2023-03-02T17:38:41.103Z,5.53
2023-03-02T17:41:11.172Z,5.54
2023-03-02T17:43:42.771Z,5.52
2023-03-02T17:46:17.000Z,5.48
2023-03-02T17:48:44.625Z,5.48
2023-03-02T17:51:14.941Z,5.45
2023-03-02T17:53:48.233Z,5.48
2023-03-02T17:56:18.987Z,5.38
2023-03-02T17:58:46.818Z,5.43
2023-03-02T18:01:15.928Z,5.43
2023-03-02T18:03:45.292Z,5.43
2023-03-02T18:06:14.030Z,5.44
2023-03-02T18:08:41.853Z,5.44
2023-03-02T18:11:10.616Z,5.41
2023-03-02T18:13:38.636Z,5.40
2023-03-02T18:16:06.620Z,5.36
2023-03-02T18:18:34.541Z,5.41
2023-03-02T18:21:02.486Z,5.45
2023-03-02T18:23:30.525Z,5.40
2023-03-02T18:25:58.681Z,5.46
2023-03-02T18:28:26.265Z,5.42
2023-03-02T18:30:53.843Z,5.44
2023-03-02T18:33:21.711Z,5.43
2023-03-02T18:35:49.339Z,5.43
2023-03-02T18:38:16.899Z,5.38
2023-03-02T18:40:44.861Z,5.37
2023-03-02T18:43:12.579Z,5.40
2023-03-02T18:45:40.284Z,5.41
2023-03-02T18:48:08.134Z,5.39
2023-03-02T18:50:35.677Z,5.41
2023-03-02T18:53:03.160Z,5.36
2023-03-02T18:55:31.078Z,5.35
2023-03-02T18:57:59.536Z,5.36
2023-03-02T19:00:28.260Z,5.33
2023-03-02T19:02:57.471Z,5.36
2023-03-02T19:05:27.099Z,5.33
2023-03-02T19:07:54.931Z,5.37
2023-03-02T19:10:22.712Z,5.34
2023-03-02T19:12:50.412Z,5.31
2023-03-02T19:15:18.061Z,5.29
2023-03-02T19:17:46.114Z,5.33
2023-03-02T19:20:15.883Z,5.33
2023-03-02T19:22:43.452Z,5.35
2023-03-02T19:25:11.686Z,5.33
2023-03-02T19:27:40.450Z,5.37
2023-03-02T19:30:18.886Z,5.33
2023-03-02T19:32:56.795Z,5.33
2023-03-02T19:35:27.170Z,5.40
2023-03-02T19:37:55.907Z,5.31
2023-03-02T19:40:25.188Z,5.32
2023-03-02T19:42:53.834Z,5.32
2023-03-02T19:45:29.460Z,5.32
2023-03-02T19:47:58.783Z,5.34
2023-03-02T19:50:28.512Z,5.34
2023-03-02T19:52:56.670Z,5.35
2023-03-02T19:55:25.475Z,5.37
2023-03-02T19:57:59.931Z,5.34
2023-03-02T20:00:30.832Z,5.33
2023-03-02T20:02:59.528Z,5.29
2023-03-02T20:05:27.813Z,5.25
2023-03-02T20:07:55.742Z,5.28
2023-03-02T20:10:35.195Z,5.30
2023-03-02T20:13:03.565Z,5.31
2023-03-02T20:15:33.630Z,5.32
2023-03-02T20:18:02.661Z,5.27
2023-03-02T20:20:31.118Z,5.32
2023-03-02T20:23:00.315Z,5.34
2023-03-02T20:25:28.500Z,5.35
2023-03-02T20:27:57.215Z,5.39
2023-03-02T20:30:30.305Z,5.43
2023-03-02T20:32:59.932Z,5.46
2023-03-02T20:35:29.979Z,5.50
2023-03-02T20:37:59.938Z,5.48
2023-03-02T20:40:29.326Z,5.55
2023-03-02T20:42:57.059Z,5.59
2023-03-02T20:45:24.772Z,5.65
2023-03-02T20:47:52.610Z,5.66
2023-03-02T20:50:23.818Z,5.68
2023-03-02T20:52:51.466Z,5.67
2023-03-02T20:55:19.463Z,5.68
2023-03-02T20:57:48.668Z,5.72
2023-03-02T21:00:23.422Z,5.71
2023-03-02T21:02:51.794Z,5.70
2023-03-02T21:05:21.615Z,5.72
2023-03-02T21:07:49.529Z,5.76
2023-03-02T21:10:21.838Z,5.72
2023-03-02T21:12:49.461Z,5.75
2023-03-02T21:15:20.127Z,5.74
2023-03-02T21:17:47.645Z,5.76
2023-03-02T21:20:18.428Z,5.77
2023-03-02T21:22:46.573Z,5.77
2023-03-02T21:25:14.208Z,5.78
2023-03-02T21:27:43.922Z,5.77
2023-03-02T21:30:18.078Z,5.84
2023-03-02T21:32:46.537Z,5.81
2023-03-02T21:35:17.078Z,5.81
2023-03-02T21:37:44.893Z,5.77
2023-03-02T21:40:16.786Z,5.80
2023-03-02T21:42:44.997Z,5.80
2023-03-02T21:45:12.923Z,5.79
2023-03-02T21:47:42.361Z,5.76
2023-03-02T21:50:24.814Z,5.81
2023-03-02T21:52:52.288Z,5.77
2023-03-02T21:55:20.274Z,5.75
2023-03-02T21:57:48.485Z,5.78
2023-03-02T22:00:26.042Z,5.78
2023-03-02T22:02:54.478Z,5.77
2023-03-02T22:05:22.206Z,5.77
2023-03-02T22:07:49.835Z,5.77
2023-03-02T22:10:34.820Z,5.81
2023-03-02T22:13:24.789Z,5.81
2023-03-02T22:16:16.018Z,5.79
2023-03-02T22:18:45.417Z,5.77
2023-03-02T22:21:34.626Z,5.81
2023-03-02T22:24:08.298Z,5.78
2023-03-02T22:26:45.405Z,5.78
2023-03-02T22:29:41.256Z,5.78
2023-03-02T22:32:18.079Z,5.81
2023-03-02T22:34:47.880Z,5.84
2023-03-02T22:37:19.654Z,5.83
2023-03-02T22:39:48.483Z,5.84
2023-03-02T22:42:25.255Z,5.85
2023-03-02T22:45:06.441Z,5.83
2023-03-02T22:47:34.246Z,5.84
2023-03-02T22:50:20.673Z,5.88
2023-03-02T22:52:49.082Z,5.89
2023-03-02T22:55:40.707Z,5.88
2023-03-02T22:58:36.179Z,5.91
2023-03-02T23:01:21.630Z,5.93
2023-03-02T23:03:53.102Z,5.92
2023-03-02T23:06:25.768Z,5.92
2023-03-02T23:08:55.831Z,5.89
2023-03-02T23:11:24.471Z,5.87
2023-03-02T23:13:53.401Z,5.90
2023-03-02T23:16:27.301Z,5.90
2023-03-02T23:19:01.498Z,5.91
2023-03-02T23:21:46.450Z,5.93
2023-03-02T23:24:14.021Z,5.95
2023-03-02T23:26:41.838Z,5.91
2023-03-02T23:29:09.308Z,5.90
2023-03-02T23:31:36.861Z,5.90
2023-03-02T23:34:05.448Z,5.92
2023-03-02T23:36:33.054Z,5.96
2023-03-02T23:39:00.776Z,5.96
2023-03-02T23:41:28.589Z,5.94
2023-03-02T23:43:56.185Z,5.95
2023-03-02T23:46:24.307Z,5.95
2023-03-02T23:48:53.058Z,5.93
2023-03-02T23:51:20.655Z,5.96
2023-03-02T23:53:48.185Z,5.94
2023-03-02T23:56:15.989Z,5.94
2023-03-02T23:58:43.505Z,5.92
